< < Back
Terminal Aerodrome Forecast


Current Version              Previous Versions:   1  2  3  4  5  6  7  8  9  

Terminal Aerodrome Forecast

193
FTUS44 KMRX 270530
TAFTYS
TAF
KTYS 270530Z 2706/2806 24005KT P6SM OVC035
      TEMPO 2706/2710 5SM -SHSN OVC025
     FM271000 24004KT P6SM -SHSN OVC015
     FM271500 35004KT P6SM OVC025
     FM271800 34008KT P6SM BKN040
     FM280200 35005KT P6SM SCT035=

Latest METAR

455
SAUS80 KWBC 271200 RRA
MTRTYS
METAR KTYS 271153Z 22004KT 3SM -SN BR FEW005 OVC022 M01/M01 A2989 RMK
AO2 FZRAE03 SLP128 4/001 P0002 60003 70004 I1000 I6000
T10061011 11006 21011 53005


USA.gov is the U.S. government's official web portal to all federal, state and local government web resources and services.